Time;durP1;ratioP1;P1;durP2;ratioP2;P2;SDS_P1;SDS_P2;PMS_P1;PMS_P2;Temp;Humidity;BMP_temperature;BMP_pressure;BME280_temperature;BME280_humidity;BME280_pressure;Samples;Min_cycle;Max_cycle;Signal;HPM_P1;HPM_P2
2023/03/12 00:01:33;;;;;;;1.13;0.40;;;;;;;;;;5003783;28;20359;-68
2023/03/12 00:04:00;;;;;;;1.23;0.47;;;;;;;;;;5006106;28;21041;-69
2023/03/12 00:06:25;;;;;;;0.82;0.40;;;;;;;;;;4995922;28;20038;-66
2023/03/12 00:08:50;;;;;;;0.80;0.40;;;;;;;;;;5005639;28;20056;-68
2023/03/12 00:11:16;;;;;;;1.15;0.57;;;;;;;;;;5001167;28;20048;-67
2023/03/12 00:13:42;;;;;;;1.25;0.65;;;;;;;;;;4996279;28;20070;-68
2023/03/12 00:16:08;;;;;;;0.90;0.30;;;;;;;;;;5005141;28;20069;-67
2023/03/12 00:18:33;;;;;;;1.08;0.50;;;;;;;;;;5006981;28;20076;-68
2023/03/12 00:20:58;;;;;;;2.10;0.50;;;;;;;;;;5022237;28;20794;-64
2023/03/12 00:23:24;;;;;;;1.07;0.50;;;;;;;;;;5007124;28;20358;-65
2023/03/12 00:25:49;;;;;;;0.93;0.40;;;;;;;;;;5005510;28;20303;-69
2023/03/12 00:28:14;;;;;;;1.03;0.50;;;;;;;;;;5002010;28;20304;-68
2023/03/12 00:30:39;;;;;;;1.05;0.30;;;;;;;;;;5006341;28;20272;-67
2023/03/12 00:33:05;;;;;;;1.00;0.43;;;;;;;;;;5006351;28;20025;-69
2023/03/12 00:35:31;;;;;;;0.98;0.50;;;;;;;;;;5006638;28;20067;-68
2023/03/12 00:37:56;;;;;;;1.40;0.60;;;;;;;;;;5007842;28;20043;-66
2023/03/12 00:40:22;;;;;;;0.90;0.40;;;;;;;;;;5006845;28;20093;-66
2023/03/12 00:42:47;;;;;;;1.60;0.50;;;;;;;;;;4990611;28;20426;-66
2023/03/12 00:45:12;;;;;;;0.77;0.40;;;;;;;;;;5007035;28;20368;-68
2023/03/12 00:47:37;;;;;;;0.80;0.60;;;;;;;;;;5008054;28;20046;-69
2023/03/12 00:50:03;;;;;;;1.23;0.60;;;;;;;;;;5009991;28;20041;-66
2023/03/12 00:52:28;;;;;;;1.05;0.47;;;;;;;;;;4990501;28;20272;-68
2023/03/12 00:54:57;;;;;;;1.27;0.67;;;;;;;;;;5008147;28;20030;-69
2023/03/12 00:57:22;;;;;;;0.80;0.40;;;;;;;;;;5003142;28;20277;-66
2023/03/12 00:59:47;;;;;;;1.33;0.45;;;;;;;;;;5005856;28;20100;-71
2023/03/12 01:02:12;;;;;;;1.27;0.50;;;;;;;;;;5006180;28;20558;-67
2023/03/12 01:04:38;;;;;;;1.27;0.60;;;;;;;;;;4978576;28;20785;-67
2023/03/12 01:07:03;;;;;;;1.00;0.60;;;;;;;;;;4996908;28;20125;-69
2023/03/12 01:09:28;;;;;;;1.02;0.40;;;;;;;;;;5020834;28;20414;-69
2023/03/12 01:11:53;;;;;;;2.77;0.60;;;;;;;;;;5007353;28;20451;-67
2023/03/12 01:14:19;;;;;;;1.07;0.50;;;;;;;;;;5007196;28;20315;-68
2023/03/12 01:16:44;;;;;;;0.93;0.60;;;;;;;;;;5005893;28;20277;-70
2023/03/12 01:19:09;;;;;;;0.80;0.40;;;;;;;;;;4989044;28;20523;-66
2023/03/12 01:21:35;;;;;;;1.30;0.47;;;;;;;;;;5006756;28;20269;-68
2023/03/12 01:24:00;;;;;;;1.00;0.57;;;;;;;;;;5004021;28;20557;-67
2023/03/12 01:26:25;;;;;;;1.05;0.52;;;;;;;;;;5006790;28;20296;-67
2023/03/12 01:28:50;;;;;;;1.05;0.50;;;;;;;;;;4994430;28;20050;-66
2023/03/12 01:31:17;;;;;;;1.23;0.68;;;;;;;;;;4995027;28;20088;-65
2023/03/12 01:33:42;;;;;;;0.85;0.40;;;;;;;;;;4978667;28;20038;-66
2023/03/12 01:36:14;;;;;;;1.20;0.70;;;;;;;;;;5000874;28;20140;-68
2023/03/12 01:38:39;;;;;;;1.42;0.50;;;;;;;;;;4987120;28;20042;-63
2023/03/12 01:41:05;;;;;;;1.37;0.50;;;;;;;;;;5006021;28;20950;-71
2023/03/12 01:43:31;;;;;;;2.13;0.60;;;;;;;;;;4990525;28;20270;-68
2023/03/12 01:45:57;;;;;;;1.10;0.55;;;;;;;;;;5006136;28;20061;-66
2023/03/12 01:48:22;;;;;;;1.57;0.60;;;;;;;;;;4997043;28;20482;-68
2023/03/12 01:50:47;;;;;;;1.23;0.50;;;;;;;;;;4987428;28;20034;-68
2023/03/12 01:53:12;;;;;;;1.50;0.63;;;;;;;;;;4991009;28;20305;-66
2023/03/12 01:55:37;;;;;;;1.40;0.60;;;;;;;;;;4991460;28;20066;-66
2023/03/12 01:58:03;;;;;;;0.83;0.50;;;;;;;;;;4995218;28;20292;-69
2023/03/12 02:00:28;;;;;;;1.63;0.57;;;;;;;;;;4976828;28;20375;-68
2023/03/12 02:02:58;;;;;;;0.98;0.50;;;;;;;;;;4996854;28;20049;-67
2023/03/12 02:05:33;;;;;;;1.00;0.60;;;;;;;;;;4994309;28;20062;-69
2023/03/12 02:07:58;;;;;;;1.08;0.45;;;;;;;;;;4997453;28;20045;-66
2023/03/12 02:10:24;;;;;;;0.70;0.50;;;;;;;;;;4996725;28;20072;-66
2023/03/12 02:12:49;;;;;;;1.33;0.80;;;;;;;;;;4980582;28;20088;-67
2023/03/12 02:15:14;;;;;;;1.60;0.50;;;;;;;;;;4998022;28;20034;-65
2023/03/12 02:17:40;;;;;;;1.40;0.50;;;;;;;;;;4991019;28;21065;-66
2023/03/12 02:20:09;;;;;;;1.40;0.60;;;;;;;;;;4982546;28;20312;-64
2023/03/12 02:22:35;;;;;;;1.00;0.65;;;;;;;;;;4970332;28;20049;-68
2023/03/12 02:25:19;;;;;;;1.63;0.52;;;;;;;;;;5010978;28;20038;-67
2023/03/12 02:27:44;;;;;;;0.77;0.60;;;;;;;;;;5013547;28;20498;-68
2023/03/12 02:30:13;;;;;;;1.03;0.50;;;;;;;;;;4986502;28;20129;-69
2023/03/12 02:32:39;;;;;;;1.92;0.65;;;;;;;;;;4988446;28;20335;-65
2023/03/12 02:35:05;;;;;;;0.80;0.50;;;;;;;;;;4989548;28;20030;-68
2023/03/12 02:37:30;;;;;;;1.58;0.60;;;;;;;;;;4986402;28;20077;-64
2023/03/12 02:40:08;;;;;;;1.60;0.60;;;;;;;;;;4972243;28;20089;-69
2023/03/12 02:42:33;;;;;;;1.35;0.63;;;;;;;;;;4987983;28;20037;-66
2023/03/12 02:44:59;;;;;;;1.35;0.80;;;;;;;;;;4990591;28;20038;-68
2023/03/12 02:47:24;;;;;;;0.82;0.70;;;;;;;;;;4986627;28;20463;-67
2023/03/12 02:49:49;;;;;;;1.30;0.60;;;;;;;;;;4998697;28;20038;-69
2023/03/12 02:52:14;;;;;;;1.23;0.50;;;;;;;;;;4971349;28;20168;-69
2023/03/12 02:54:40;;;;;;;0.80;0.60;;;;;;;;;;4986950;28;20832;-66
2023/03/12 02:57:06;;;;;;;1.88;0.70;;;;;;;;;;4991134;28;20289;-65
2023/03/12 02:59:31;;;;;;;1.40;0.53;;;;;;;;;;4996722;28;20035;-65
2023/03/12 03:01:57;;;;;;;1.20;0.60;;;;;;;;;;4988844;28;20300;-68
2023/03/12 03:04:22;;;;;;;1.58;0.60;;;;;;;;;;4985369;28;20285;-68
2023/03/12 03:06:48;;;;;;;0.70;0.40;;;;;;;;;;4990787;28;20722;-65
2023/03/12 03:09:13;;;;;;;1.20;0.90;;;;;;;;;;4987561;28;20058;-68
2023/03/12 03:11:38;;;;;;;0.75;0.50;;;;;;;;;;4989276;28;20159;-66
2023/03/12 03:14:05;;;;;;;0.95;0.50;;;;;;;;;;4978278;28;20550;-64
2023/03/12 03:16:31;;;;;;;1.10;0.70;;;;;;;;;;4993944;28;20039;-65
2023/03/12 03:18:56;;;;;;;0.80;0.50;;;;;;;;;;4986488;28;20030;-65
2023/03/12 03:21:21;;;;;;;0.97;0.67;;;;;;;;;;4996176;28;20384;-67
2023/03/12 03:23:47;;;;;;;1.23;0.50;;;;;;;;;;4997255;28;20293;-68
2023/03/12 03:26:12;;;;;;;1.15;0.57;;;;;;;;;;5001078;28;20105;-68
2023/03/12 03:28:38;;;;;;;1.10;0.70;;;;;;;;;;4997202;28;20414;-68
2023/03/12 03:31:03;;;;;;;1.20;0.70;;;;;;;;;;5005003;28;20104;-68
2023/03/12 03:33:28;;;;;;;1.02;0.60;;;;;;;;;;5005094;28;20038;-68
2023/03/12 03:35:54;;;;;;;1.02;0.60;;;;;;;;;;5001703;28;20077;-67
2023/03/12 03:38:20;;;;;;;1.42;0.70;;;;;;;;;;4993256;28;20108;-67
2023/03/12 03:40:45;;;;;;;1.02;0.52;;;;;;;;;;5005303;28;20120;-68
2023/03/12 03:43:11;;;;;;;1.80;0.73;;;;;;;;;;5005265;28;20606;-68
2023/03/12 03:45:36;;;;;;;0.93;0.60;;;;;;;;;;5004947;28;20789;-65
2023/03/12 03:48:01;;;;;;;1.38;0.52;;;;;;;;;;4997946;28;20124;-68
2023/03/12 03:50:26;;;;;;;1.13;0.70;;;;;;;;;;5019048;28;20100;-67
2023/03/12 03:52:52;;;;;;;1.37;0.70;;;;;;;;;;5004651;28;20316;-65
2023/03/12 03:55:17;;;;;;;0.90;0.50;;;;;;;;;;5005870;28;20626;-68
2023/03/12 03:57:42;;;;;;;1.40;0.70;;;;;;;;;;5007271;28;20499;-68
2023/03/12 04:00:08;;;;;;;1.20;0.77;;;;;;;;;;5000477;28;20458;-68
2023/03/12 04:02:34;;;;;;;1.00;0.70;;;;;;;;;;5022512;28;20292;-65
2023/03/12 04:04:59;;;;;;;1.35;0.75;;;;;;;;;;4990455;28;20041;-65
2023/03/12 04:07:25;;;;;;;0.80;0.50;;;;;;;;;;4994465;28;20067;-67
2023/03/12 04:09:50;;;;;;;0.88;0.60;;;;;;;;;;5006472;28;20054;-68
2023/03/12 04:12:15;;;;;;;1.10;0.68;;;;;;;;;;5008084;28;20371;-67
2023/03/12 04:14:41;;;;;;;0.80;0.50;;;;;;;;;;5008231;28;20507;-65
2023/03/12 04:17:06;;;;;;;0.90;0.60;;;;;;;;;;5007372;28;20065;-66
2023/03/12 04:19:32;;;;;;;1.10;0.73;;;;;;;;;;5022602;28;20037;-66
2023/03/12 04:21:57;;;;;;;1.57;0.80;;;;;;;;;;5007449;28;20030;-66
2023/03/12 04:24:22;;;;;;;1.17;0.73;;;;;;;;;;5008297;28;20285;-68
2023/03/12 04:26:47;;;;;;;1.40;0.50;;;;;;;;;;5002625;28;20401;-69
2023/03/12 04:29:13;;;;;;;1.13;0.70;;;;;;;;;;5002516;28;20316;-65
2023/03/12 04:31:38;;;;;;;0.90;0.60;;;;;;;;;;5006487;28;20034;-64
2023/03/12 04:34:03;;;;;;;1.13;0.70;;;;;;;;;;4995621;28;20049;-64
2023/03/12 04:36:29;;;;;;;0.95;0.55;;;;;;;;;;5006323;28;20331;-66
2023/03/12 04:38:54;;;;;;;1.02;0.57;;;;;;;;;;5005669;28;20102;-71
2023/03/12 04:41:19;;;;;;;0.80;0.70;;;;;;;;;;5003794;28;20026;-69
2023/03/12 04:43:45;;;;;;;0.80;0.50;;;;;;;;;;4978201;28;20380;-66
2023/03/12 04:46:10;;;;;;;1.60;0.52;;;;;;;;;;5023175;28;20073;-68
2023/03/12 04:48:35;;;;;;;1.15;0.40;;;;;;;;;;5006107;28;20540;-70
2023/03/12 04:51:01;;;;;;;1.13;0.70;;;;;;;;;;5008160;28;20053;-71
2023/03/12 04:53:26;;;;;;;1.05;0.50;;;;;;;;;;5024701;28;20026;-72
2023/03/12 04:55:52;;;;;;;0.80;0.60;;;;;;;;;;4981129;28;20034;-67
2023/03/12 04:58:17;;;;;;;0.60;0.50;;;;;;;;;;5019194;28;20429;-66
2023/03/12 05:00:42;;;;;;;0.80;0.50;;;;;;;;;;5007210;28;20307;-69
2023/03/12 05:03:08;;;;;;;1.05;0.60;;;;;;;;;;4999497;28;20698;-65
2023/03/12 05:05:34;;;;;;;1.00;0.50;;;;;;;;;;4995418;28;20050;-64
2023/03/12 05:07:59;;;;;;;1.10;0.60;;;;;;;;;;5001011;28;20456;-70
2023/03/12 05:10:25;;;;;;;1.27;0.45;;;;;;;;;;4990841;28;20089;-67
2023/03/12 05:12:50;;;;;;;1.17;0.57;;;;;;;;;;5005350;28;20042;-68
2023/03/12 05:15:16;;;;;;;0.97;0.60;;;;;;;;;;5006696;28;20319;-72
2023/03/12 05:17:42;;;;;;;1.15;0.82;;;;;;;;;;5006206;28;20341;-68
2023/03/12 05:20:07;;;;;;;0.88;0.50;;;;;;;;;;4990075;28;20039;-65
2023/03/12 05:22:33;;;;;;;1.15;0.60;;;;;;;;;;5005803;28;20422;-70
2023/03/12 05:24:58;;;;;;;0.63;0.40;;;;;;;;;;5007864;28;20068;-66
2023/03/12 05:27:24;;;;;;;1.15;0.70;;;;;;;;;;5006112;28;20038;-66
2023/03/12 05:29:50;;;;;;;1.20;0.65;;;;;;;;;;5000166;28;20474;-64
2023/03/12 05:32:15;;;;;;;1.30;0.57;;;;;;;;;;4990152;28;20153;-69
2023/03/12 05:34:40;;;;;;;0.80;0.47;;;;;;;;;;4998143;28;20435;-70
2023/03/12 05:37:06;;;;;;;1.23;0.60;;;;;;;;;;5002645;28;20794;-63
2023/03/12 05:39:31;;;;;;;1.00;0.50;;;;;;;;;;5006652;28;20085;-67
2023/03/12 05:41:56;;;;;;;1.20;0.60;;;;;;;;;;5003675;28;20363;-68
2023/03/12 05:44:22;;;;;;;0.80;0.50;;;;;;;;;;5005342;28;20145;-67
2023/03/12 05:46:47;;;;;;;0.90;0.50;;;;;;;;;;5005971;28;20309;-68
2023/03/12 05:49:13;;;;;;;0.97;0.67;;;;;;;;;;5005253;28;20224;-70
2023/03/12 05:51:38;;;;;;;0.80;0.60;;;;;;;;;;4994033;28;20295;-68
2023/03/12 05:54:03;;;;;;;0.93;0.50;;;;;;;;;;5007640;28;20107;-69
2023/03/12 05:56:28;;;;;;;2.28;0.70;;;;;;;;;;5003370;28;20387;-65
2023/03/12 05:58:54;;;;;;;0.73;0.60;;;;;;;;;;4998370;28;20053;-65
2023/03/12 06:01:20;;;;;;;0.90;0.70;;;;;;;;;;4996477;28;20061;-64
2023/03/12 06:03:45;;;;;;;0.80;0.60;;;;;;;;;;4997970;28;20288;-66
2023/03/12 06:06:10;;;;;;;0.90;0.50;;;;;;;;;;5005265;28;20062;-62
2023/03/12 06:08:36;;;;;;;1.00;0.50;;;;;;;;;;4998545;28;20433;-65
2023/03/12 06:11:01;;;;;;;0.77;0.50;;;;;;;;;;5004059;28;20673;-63
2023/03/12 06:13:27;;;;;;;1.53;0.63;;;;;;;;;;4987627;28;20033;-63
2023/03/12 06:15:52;;;;;;;0.77;0.47;;;;;;;;;;5002094;28;20292;-66
2023/03/12 06:18:17;;;;;;;0.70;0.50;;;;;;;;;;5002236;28;20124;-64
2023/03/12 06:20:43;;;;;;;1.33;0.57;;;;;;;;;;4992438;28;20218;-70
2023/03/12 06:23:08;;;;;;;2.80;0.88;;;;;;;;;;4999418;28;20288;-66
2023/03/12 06:25:33;;;;;;;0.80;0.40;;;;;;;;;;4998423;28;20077;-63
2023/03/12 06:27:58;;;;;;;0.77;0.47;;;;;;;;;;4999820;28;20056;-66
2023/03/12 06:30:25;;;;;;;0.85;0.50;;;;;;;;;;4991592;28;20305;-65
2023/03/12 06:32:51;;;;;;;0.95;0.60;;;;;;;;;;5003590;28;20710;-65
2023/03/12 06:35:16;;;;;;;1.17;0.60;;;;;;;;;;5006270;28;20076;-64
2023/03/12 06:37:41;;;;;;;1.30;0.77;;;;;;;;;;4971136;28;20029;-67
2023/03/12 06:40:09;;;;;;;1.83;0.50;;;;;;;;;;5006445;28;20288;-68
2023/03/12 06:42:34;;;;;;;0.70;0.50;;;;;;;;;;5004719;28;20478;-65
2023/03/12 06:45:00;;;;;;;0.70;0.50;;;;;;;;;;5007516;28;20029;-66
2023/03/12 06:47:25;;;;;;;0.90;0.50;;;;;;;;;;5001894;28;20112;-67
2023/03/12 06:49:50;;;;;;;1.63;0.70;;;;;;;;;;5005716;28;20529;-64
2023/03/12 06:52:15;;;;;;;1.20;0.60;;;;;;;;;;5003935;28;20481;-66
2023/03/12 06:54:41;;;;;;;1.52;0.50;;;;;;;;;;5002078;28;20595;-67
2023/03/12 06:57:06;;;;;;;1.50;0.60;;;;;;;;;;5003884;28;20021;-63
2023/03/12 06:59:31;;;;;;;1.25;0.30;;;;;;;;;;5004625;28;20018;-64
2023/03/12 07:01:56;;;;;;;1.10;0.50;;;;;;;;;;5005398;28;20463;-64
2023/03/12 07:04:22;;;;;;;1.10;0.65;;;;;;;;;;5006625;28;20362;-64
2023/03/12 07:06:49;;;;;;;0.82;0.57;;;;;;;;;;4997509;28;20352;-67
2023/03/12 07:09:15;;;;;;;0.75;0.50;;;;;;;;;;5002014;28;20092;-65
2023/03/12 07:11:40;;;;;;;0.98;0.50;;;;;;;;;;5002052;28;20064;-66
2023/03/12 07:14:05;;;;;;;1.10;0.60;;;;;;;;;;5000712;28;20018;-64
2023/03/12 07:16:30;;;;;;;3.20;0.50;;;;;;;;;;4998416;28;20269;-65
2023/03/12 07:18:56;;;;;;;1.20;0.50;;;;;;;;;;5006036;28;20269;-67
2023/03/12 07:21:23;;;;;;;1.20;0.50;;;;;;;;;;4995232;28;20269;-64
2023/03/12 07:23:49;;;;;;;0.80;0.50;;;;;;;;;;5012414;28;20296;-63
2023/03/12 07:26:14;;;;;;;1.00;0.50;;;;;;;;;;4997634;28;20604;-62
2023/03/12 07:28:40;;;;;;;0.90;0.50;;;;;;;;;;5000344;28;20036;-65
2023/03/12 07:31:05;;;;;;;0.90;0.70;;;;;;;;;;4991630;28;20372;-67
2023/03/12 07:33:31;;;;;;;1.00;0.50;;;;;;;;;;5009228;28;20103;-65
2023/03/12 07:35:56;;;;;;;1.35;0.60;;;;;;;;;;4993536;28;20082;-64
2023/03/12 07:38:21;;;;;;;0.95;0.50;;;;;;;;;;5021366;28;20026;-67
2023/03/12 07:40:53;;;;;;;0.80;0.50;;;;;;;;;;4999240;28;20115;-67
2023/03/12 07:43:18;;;;;;;1.00;0.47;;;;;;;;;;5005835;28;20041;-65
2023/03/12 07:45:43;;;;;;;1.00;0.60;;;;;;;;;;5003481;28;20042;-66
2023/03/12 07:48:08;;;;;;;1.70;1.00;;;;;;;;;;5000633;28;20318;-67
2023/03/12 07:50:34;;;;;;;0.73;0.52;;;;;;;;;;5008843;28;20334;-67
2023/03/12 07:53:00;;;;;;;2.35;0.60;;;;;;;;;;4997120;28;20096;-68
2023/03/12 07:55:25;;;;;;;0.75;0.45;;;;;;;;;;4989131;28;20034;-68
2023/03/12 07:57:50;;;;;;;0.90;0.50;;;;;;;;;;5002751;28;20048;-66
2023/03/12 08:00:16;;;;;;;0.80;0.50;;;;;;;;;;5009180;28;20292;-68
2023/03/12 08:02:42;;;;;;;0.95;0.40;;;;;;;;;;5003530;28;20743;-63
2023/03/12 08:05:07;;;;;;;0.65;0.45;;;;;;;;;;5003722;28;20038;-65
2023/03/12 08:07:33;;;;;;;0.82;0.47;;;;;;;;;;5021503;28;20037;-67
2023/03/12 08:09:59;;;;;;;0.80;0.60;;;;;;;;;;5023207;28;20675;-67
2023/03/12 08:12:24;;;;;;;0.70;0.50;;;;;;;;;;5005787;28;20152;-64
2023/03/12 08:14:49;;;;;;;0.80;0.47;;;;;;;;;;5024092;28;20793;-69
2023/03/12 08:17:14;;;;;;;1.00;0.60;;;;;;;;;;5001481;28;20284;-69
2023/03/12 08:19:41;;;;;;;0.80;0.50;;;;;;;;;;4993523;28;20277;-67
2023/03/12 08:22:06;;;;;;;1.13;0.60;;;;;;;;;;4995512;28;20147;-71
2023/03/12 08:24:31;;;;;;;0.82;0.50;;;;;;;;;;4980572;28;20058;-63
2023/03/12 08:26:57;;;;;;;1.80;0.60;;;;;;;;;;5001890;28;20054;-66
2023/03/12 08:29:22;;;;;;;0.98;0.57;;;;;;;;;;4996161;28;20365;-66
2023/03/12 08:31:47;;;;;;;1.10;0.50;;;;;;;;;;5004838;28;20034;-68
2023/03/12 08:34:12;;;;;;;1.30;0.57;;;;;;;;;;4995787;28;20080;-68
2023/03/12 08:36:38;;;;;;;0.60;0.40;;;;;;;;;;5002303;28;20288;-71
2023/03/12 08:39:03;;;;;;;1.10;0.50;;;;;;;;;;4998656;28;20127;-63
2023/03/12 08:41:29;;;;;;;1.60;0.70;;;;;;;;;;4997618;28;20044;-70
2023/03/12 08:43:54;;;;;;;3.42;0.50;;;;;;;;;;4996961;28;20033;-69
2023/03/12 08:46:19;;;;;;;1.83;0.45;;;;;;;;;;4995706;28;20050;-71
2023/03/12 08:48:44;;;;;;;1.83;0.60;;;;;;;;;;4999813;28;20056;-72
2023/03/12 08:51:10;;;;;;;2.60;0.87;;;;;;;;;;4988654;28;20265;-70
2023/03/12 08:53:35;;;;;;;2.45;0.60;;;;;;;;;;4999276;28;20898;-70
2023/03/12 08:56:00;;;;;;;1.75;0.50;;;;;;;;;;4985577;28;20112;-67
2023/03/12 08:58:26;;;;;;;1.98;0.60;;;;;;;;;;4978239;28;20026;-67
2023/03/12 09:00:51;;;;;;;1.25;0.60;;;;;;;;;;5004071;28;20405;-67
2023/03/12 09:03:17;;;;;;;1.40;0.60;;;;;;;;;;4998332;28;20054;-69
2023/03/12 09:05:42;;;;;;;2.38;0.93;;;;;;;;;;4988079;28;20035;-70
2023/03/12 09:08:07;;;;;;;1.27;0.52;;;;;;;;;;4995072;28;20552;-71
2023/03/12 09:10:33;;;;;;;1.00;0.50;;;;;;;;;;4993984;28;20034;-69
2023/03/12 09:12:58;;;;;;;1.63;0.60;;;;;;;;;;5001318;28;20099;-69
2023/03/12 09:15:23;;;;;;;1.80;0.50;;;;;;;;;;4998664;28;20038;-68
2023/03/12 09:17:49;;;;;;;1.07;0.40;;;;;;;;;;4997550;28;20435;-65
2023/03/12 09:20:14;;;;;;;1.05;0.50;;;;;;;;;;4987265;28;20273;-67
2023/03/12 09:22:40;;;;;;;1.45;0.60;;;;;;;;;;4995545;28;20400;-69
2023/03/12 09:25:06;;;;;;;1.15;0.55;;;;;;;;;;4993092;28;20038;-67
2023/03/12 09:27:35;;;;;;;1.80;0.50;;;;;;;;;;4994032;28;20049;-67
2023/03/12 09:30:00;;;;;;;1.43;0.60;;;;;;;;;;5012044;28;20125;-68
2023/03/12 09:32:26;;;;;;;1.03;0.50;;;;;;;;;;4996425;28;20050;-66
2023/03/12 09:34:51;;;;;;;1.08;0.50;;;;;;;;;;5001606;28;20037;-66
2023/03/12 09:37:17;;;;;;;1.58;0.50;;;;;;;;;;4990340;28;20131;-68
2023/03/12 09:39:42;;;;;;;1.02;0.40;;;;;;;;;;4991421;28;20050;-69
2023/03/12 09:42:10;;;;;;;1.97;0.80;;;;;;;;;;4994989;28;20034;-68
2023/03/12 09:44:35;;;;;;;1.02;0.60;;;;;;;;;;4994309;28;20725;-69
2023/03/12 09:47:02;;;;;;;1.42;0.52;;;;;;;;;;4995153;28;20065;-69
2023/03/12 09:49:42;;;;;;;0.65;0.45;;;;;;;;;;4992838;28;20035;-69
2023/03/12 09:52:15;;;;;;;1.55;0.60;;;;;;;;;;4991143;28;20041;-70
2023/03/12 09:54:42;;;;;;;1.17;0.80;;;;;;;;;;4985755;28;20152;-69
2023/03/12 09:57:11;;;;;;;1.10;0.57;;;;;;;;;;4998306;28;20049;-69
2023/03/12 09:59:37;;;;;;;1.00;0.55;;;;;;;;;;4999930;28;20054;-66
2023/03/12 10:02:04;;;;;;;1.48;0.60;;;;;;;;;;4988346;28;20077;-66
2023/03/12 10:04:29;;;;;;;1.50;0.50;;;;;;;;;;4999293;28;20053;-66
2023/03/12 10:07:13;;;;;;;1.27;0.60;;;;;;;;;;4989751;28;20045;-68
2023/03/12 10:09:57;;;;;;;12.23;1.75;;;;;;;;;;4996657;28;20293;-67
2023/03/12 10:12:41;;;;;;;5.10;0.80;;;;;;;;;;4994753;28;20038;-65
2023/03/12 10:15:14;;;;;;;5.70;0.73;;;;;;;;;;5001499;28;20068;-67
2023/03/12 10:17:48;;;;;;;3.83;0.75;;;;;;;;;;5004984;28;20054;-68
2023/03/12 10:20:46;;;;;;;3.65;0.77;;;;;;;;;;5021063;28;20171;-67
2023/03/12 10:23:41;;;;;;;2.63;0.60;;;;;;;;;;4976353;28;20074;-67
2023/03/12 10:26:09;;;;;;;3.13;0.80;;;;;;;;;;4989982;28;20072;-66
2023/03/12 10:28:44;;;;;;;2.50;1.00;;;;;;;;;;4999700;28;20029;-68
2023/03/12 10:31:28;;;;;;;4.15;1.00;;;;;;;;;;4988426;28;20207;-68
2023/03/12 10:33:53;;;;;;;2.65;0.70;;;;;;;;;;5005838;28;20181;-69
2023/03/12 10:36:21;;;;;;;3.87;0.80;;;;;;;;;;5001883;28;20236;-72
2023/03/12 10:38:50;;;;;;;2.90;1.38;;;;;;;;;;4978451;28;20280;-66
2023/03/12 10:41:22;;;;;;;3.03;0.88;;;;;;;;;;5004860;28;20645;-65
2023/03/12 10:43:47;;;;;;;2.30;0.85;;;;;;;;;;5006141;28;20045;-66
2023/03/12 10:46:12;;;;;;;4.07;1.00;;;;;;;;;;5005749;28;20465;-68
2023/03/12 10:48:38;;;;;;;4.13;1.00;;;;;;;;;;5004912;28;20480;-67
2023/03/12 10:51:03;;;;;;;4.70;1.23;;;;;;;;;;5004639;28;20029;-64
2023/03/12 10:53:31;;;;;;;2.30;1.10;;;;;;;;;;5006533;28;20041;-65
2023/03/12 10:55:57;;;;;;;3.60;0.90;;;;;;;;;;5006301;28;20056;-64
2023/03/12 10:58:22;;;;;;;2.55;0.98;;;;;;;;;;5004961;28;20158;-65
2023/03/12 11:00:55;;;;;;;4.45;1.40;;;;;;;;;;5020958;28;20490;-64
2023/03/12 11:03:21;;;;;;;2.42;0.85;;;;;;;;;;5005571;28;20092;-63
2023/03/12 11:05:49;;;;;;;3.13;0.90;;;;;;;;;;5007402;28;20053;-64
2023/03/12 11:08:28;;;;;;;2.38;0.80;;;;;;;;;;5008311;28;20297;-64
2023/03/12 11:10:54;;;;;;;3.38;1.05;;;;;;;;;;5008223;28;20038;-66
2023/03/12 11:13:24;;;;;;;2.28;0.70;;;;;;;;;;4997835;28;20030;-68
2023/03/12 11:15:50;;;;;;;4.20;0.85;;;;;;;;;;5013726;28;20088;-66
2023/03/12 11:18:18;;;;;;;2.63;0.82;;;;;;;;;;5007864;28;20025;-63
2023/03/12 11:20:43;;;;;;;2.47;0.93;;;;;;;;;;5009235;28;20561;-68
2023/03/12 11:23:35;;;;;;;2.53;1.00;;;;;;;;;;4991108;28;20227;-67
2023/03/12 11:26:01;;;;;;;3.05;0.65;;;;;;;;;;5003039;28;20300;-66
2023/03/12 11:28:28;;;;;;;2.65;1.30;;;;;;;;;;5015525;28;20038;-65
2023/03/12 11:30:55;;;;;;;3.50;0.95;;;;;;;;;;4984876;28;20039;-66
2023/03/12 11:33:20;;;;;;;2.33;0.90;;;;;;;;;;4998944;28;20061;-67
2023/03/12 11:36:04;;;;;;;2.67;0.80;;;;;;;;;;5008670;28;21515;-63
2023/03/12 11:38:39;;;;;;;2.50;0.68;;;;;;;;;;4999418;28;20731;-64
2023/03/12 11:41:09;;;;;;;3.55;1.05;;;;;;;;;;4980390;28;20042;-67
2023/03/12 11:43:34;;;;;;;;;;;;;;;;;;5020126;28;20052;-66
2023/03/12 11:46:08;;;;;;;2.47;0.88;;;;;;;;;;4996728;28;19925;-67
2023/03/12 11:48:34;;;;;;;3.03;0.90;;;;;;;;;;4990600;28;20132;-67
2023/03/12 11:51:05;;;;;;;2.40;0.80;;;;;;;;;;4998204;28;20042;-65
2023/03/12 11:53:48;;;;;;;2.50;0.85;;;;;;;;;;5009515;28;20502;-64
2023/03/12 11:56:20;;;;;;;3.88;0.80;;;;;;;;;;5007000;28;20045;-65
2023/03/12 11:59:04;;;;;;;52.15;5.53;;;;;;;;;;5002997;28;20097;-66
2023/03/12 12:01:39;;;;;;;10.50;2.20;;;;;;;;;;5000990;28;20038;-66
2023/03/12 12:04:19;;;;;;;11.00;1.65;;;;;;;;;;5005248;28;20053;-65
2023/03/12 12:07:03;;;;;;;8.48;1.65;;;;;;;;;;5004008;28;20073;-64
2023/03/12 12:09:43;;;;;;;11.70;1.60;;;;;;;;;;5008186;28;20099;-62
2023/03/12 12:12:15;;;;;;;6.00;1.27;;;;;;;;;;5009925;28;20096;-62
2023/03/12 12:14:50;;;;;;;7.50;1.65;;;;;;;;;;5005611;28;20053;-63
2023/03/12 12:17:29;;;;;;;8.77;1.17;;;;;;;;;;4989436;28;20069;-64
2023/03/12 12:19:55;;;;;;;4.65;1.30;;;;;;;;;;4992149;28;20042;-63
2023/03/12 12:22:20;;;;;;;6.90;1.23;;;;;;;;;;5006804;28;20503;-63
2023/03/12 12:24:57;;;;;;;7.80;1.80;;;;;;;;;;4997916;28;20943;-62
2023/03/12 12:27:27;;;;;;;5.97;2.80;;;;;;;;;;4997589;28;20339;-62
2023/03/12 12:30:11;;;;;;;7.72;2.88;;;;;;;;;;5005448;28;20124;-62
2023/03/12 12:32:45;;;;;;;8.02;3.92;;;;;;;;;;5006435;28;20141;-72
2023/03/12 12:35:18;;;;;;;8.35;2.78;;;;;;;;;;4998334;28;20475;-62
2023/03/12 12:38:03;;;;;;;5.25;2.00;;;;;;;;;;4993465;28;20019;-62
2023/03/12 12:40:36;;;;;;;3.70;1.92;;;;;;;;;;5000905;28;20048;-63
2023/03/12 12:43:20;;;;;;;7.20;4.07;;;;;;;;;;4991911;28;20038;-65
2023/03/12 12:45:46;;;;;;;6.82;4.22;;;;;;;;;;5005255;28;20140;-64
2023/03/12 12:48:20;;;;;;;6.47;3.20;;;;;;;;;;5006639;28;20041;-62
2023/03/12 12:50:46;;;;;;;4.65;2.55;;;;;;;;;;4988787;28;20506;-65
2023/03/12 12:53:11;;;;;;;3.90;2.40;;;;;;;;;;4988385;28;20102;-62
2023/03/12 12:55:38;;;;;;;5.75;3.78;;;;;;;;;;5005641;28;20034;-65
2023/03/12 12:58:06;;;;;;;5.50;2.83;;;;;;;;;;4996122;28;20034;-65
2023/03/12 13:00:40;;;;;;;24.20;18.45;;;;;;;;;;5006806;28;20041;-64
2023/03/12 13:03:06;;;;;;;9.80;7.50;;;;;;;;;;5005076;28;20039;-64
2023/03/12 13:06:03;;;;;;;12.05;6.93;;;;;;;;;;4992633;28;20058;-62
2023/03/12 13:08:38;;;;;;;8.48;4.47;;;;;;;;;;4992410;28;20541;-63
2023/03/12 13:11:15;;;;;;;6.13;4.60;;;;;;;;;;5003414;28;20379;-63
2023/03/12 13:13:44;;;;;;;8.38;4.88;;;;;;;;;;5005036;28;20053;-63
2023/03/12 13:16:15;;;;;;;8.37;5.73;;;;;;;;;;4994593;28;20046;-65
2023/03/12 13:18:40;;;;;;;12.63;8.80;;;;;;;;;;4995958;28;20308;-65
2023/03/12 13:21:11;;;;;;;14.13;10.50;;;;;;;;;;5006344;28;20077;-66
2023/03/12 13:23:36;;;;;;;20.13;14.20;;;;;;;;;;4994934;28;20040;-68
2023/03/12 13:26:17;;;;;;;20.80;15.38;;;;;;;;;;4999751;28;20046;-65
2023/03/12 13:28:51;;;;;;;27.30;18.83;;;;;;;;;;5009150;28;20481;-63
2023/03/12 13:31:19;;;;;;;25.98;18.60;;;;;;;;;;5003061;28;20045;-64
2023/03/12 13:33:47;;;;;;;31.33;22.88;;;;;;;;;;4994177;28;20124;-65
2023/03/12 13:36:15;;;;;;;36.65;25.10;;;;;;;;;;5000467;28;20027;-65
2023/03/12 13:39:06;;;;;;;33.45;25.35;;;;;;;;;;4992129;28;20026;-65
2023/03/12 13:41:38;;;;;;;46.03;31.83;;;;;;;;;;4980671;28;20450;-64
2023/03/12 13:44:22;;;;;;;48.05;36.65;;;;;;;;;;5019292;28;20023;-64
2023/03/12 13:46:47;;;;;;;54.65;39.17;;;;;;;;;;5002839;28;20472;-65
2023/03/12 13:49:13;;;;;;;55.67;41.55;;;;;;;;;;4999982;28;20131;-65
2023/03/12 13:51:41;;;;;;;58.40;43.55;;;;;;;;;;4995327;28;20070;-66
2023/03/12 13:54:13;;;;;;;64.97;48.53;;;;;;;;;;4986290;28;20053;-64
2023/03/12 13:56:38;;;;;;;75.45;57.05;;;;;;;;;;5001836;28;20424;-65
2023/03/12 13:59:04;;;;;;;71.27;53.27;;;;;;;;;;5003519;28;20044;-66
2023/03/12 14:01:49;;;;;;;27.50;19.65;;;;;;;;;;4980041;28;20126;-63
2023/03/12 14:04:19;;;;;;;28.60;22.05;;;;;;;;;;5000447;28;20517;-67
2023/03/12 14:06:56;;;;;;;27.63;21.90;;;;;;;;;;4999747;28;20466;-65
2023/03/12 14:09:25;;;;;;;28.05;21.10;;;;;;;;;;5005514;28;20066;-68
2023/03/12 14:11:50;;;;;;;35.22;27.42;;;;;;;;;;4995402;28;20049;-65
2023/03/12 14:14:28;;;;;;;29.30;22.03;;;;;;;;;;4994654;28;20042;-68
2023/03/12 14:16:56;;;;;;;24.02;17.92;;;;;;;;;;4983177;28;20042;-68
2023/03/12 14:19:32;;;;;;;21.75;16.55;;;;;;;;;;5004577;28;20040;-64
2023/03/12 14:21:59;;;;;;;15.02;12.02;;;;;;;;;;5000004;28;20026;-67
2023/03/12 14:24:24;;;;;;;19.20;13.63;;;;;;;;;;4991445;28;20032;-66
2023/03/12 14:26:50;;;;;;;28.40;19.88;;;;;;;;;;5020389;28;20049;-66
2023/03/12 14:29:32;;;;;;;32.83;24.25;;;;;;;;;;4995374;28;20079;-65
2023/03/12 14:31:59;;;;;;;31.58;22.70;;;;;;;;;;5003817;28;20049;-64
2023/03/12 14:34:25;;;;;;;32.85;24.90;;;;;;;;;;4991684;28;20100;-66
2023/03/12 14:37:01;;;;;;;30.10;22.42;;;;;;;;;;4981121;28;20477;-66
2023/03/12 14:39:29;;;;;;;34.78;26.13;;;;;;;;;;4996114;28;20096;-64
2023/03/12 14:41:56;;;;;;;25.73;20.23;;;;;;;;;;4995786;28;20434;-64
2023/03/12 14:44:22;;;;;;;26.65;19.65;;;;;;;;;;4991931;28;20050;-64